sensor_id;sensor_type;location;lat;lon;timestamp;pressure;altitude;pressure_sealevel;temperature;humidity
79791;BME280;69278;52.220;5.172;2023-05-07T00:00:05;101672.00;;;16.14;76.87
79791;BME280;69278;52.220;5.172;2023-05-07T00:02:35;101668.38;;;16.15;76.86
79791;BME280;69278;52.220;5.172;2023-05-07T00:05:02;101672.63;;;16.08;76.92
79791;BME280;69278;52.220;5.172;2023-05-07T00:07:30;101682.50;;;16.15;76.98
79791;BME280;69278;52.220;5.172;2023-05-07T00:09:56;101675.56;;;16.05;76.98
79791;BME280;69278;52.220;5.172;2023-05-07T00:12:23;101682.91;;;16.11;77.05
79791;BME280;69278;52.220;5.172;2023-05-07T00:14:49;101671.09;;;16.05;77.14
79791;BME280;69278;52.220;5.172;2023-05-07T00:17:15;101683.94;;;16.10;76.99
79791;BME280;69278;52.220;5.172;2023-05-07T00:19:42;101672.06;;;16.04;77.11
79791;BME280;69278;52.220;5.172;2023-05-07T00:22:08;101670.72;;;16.00;77.11
79791;BME280;69278;52.220;5.172;2023-05-07T00:24:35;101663.78;;;15.89;77.52
79791;BME280;69278;52.220;5.172;2023-05-07T00:27:01;101671.00;;;15.97;77.14
79791;BME280;69278;52.220;5.172;2023-05-07T00:29:28;101659.63;;;15.87;77.54
79791;BME280;69278;52.220;5.172;2023-05-07T00:31:54;101679.16;;;15.96;77.52
79791;BME280;69278;52.220;5.172;2023-05-07T00:34:21;101664.63;;;15.90;77.31
79791;BME280;69278;52.220;5.172;2023-05-07T00:36:48;101651.25;;;15.82;77.38
79791;BME280;69278;52.220;5.172;2023-05-07T00:39:14;101674.50;;;15.98;77.41
79791;BME280;69278;52.220;5.172;2023-05-07T00:41:41;101671.84;;;15.98;77.30
79791;BME280;69278;52.220;5.172;2023-05-07T00:44:08;101653.31;;;15.88;77.12
79791;BME280;69278;52.220;5.172;2023-05-07T00:46:34;101654.31;;;15.87;77.51
79791;BME280;69278;52.220;5.172;2023-05-07T00:49:01;101660.00;;;15.92;77.28
79791;BME280;69278;52.220;5.172;2023-05-07T00:51:28;101666.53;;;15.98;77.48
79791;BME280;69278;52.220;5.172;2023-05-07T00:53:55;101669.19;;;15.98;77.47
79791;BME280;69278;52.220;5.172;2023-05-07T00:56:22;101666.69;;;15.96;77.33
79791;BME280;69278;52.220;5.172;2023-05-07T00:58:49;101664.34;;;15.93;77.49
79791;BME280;69278;52.220;5.172;2023-05-07T01:01:15;101656.81;;;15.88;77.46
79791;BME280;69278;52.220;5.172;2023-05-07T01:03:43;101654.84;;;15.90;77.27
79791;BME280;69278;52.220;5.172;2023-05-07T01:06:10;101665.19;;;15.93;77.17
79791;BME280;69278;52.220;5.172;2023-05-07T01:08:40;101637.22;;;15.72;77.49
79791;BME280;69278;52.220;5.172;2023-05-07T01:11:07;101663.94;;;15.88;77.45
79791;BME280;69278;52.220;5.172;2023-05-07T01:13:36;101653.22;;;15.80;77.43
79791;BME280;69278;52.220;5.172;2023-05-07T01:16:03;101667.75;;;15.85;77.55
79791;BME280;69278;52.220;5.172;2023-05-07T01:18:30;101669.94;;;15.90;77.85
79791;BME280;69278;52.220;5.172;2023-05-07T01:20:58;101660.91;;;15.83;77.76
79791;BME280;69278;52.220;5.172;2023-05-07T01:23:25;101654.91;;;15.81;77.85
79791;BME280;69278;52.220;5.172;2023-05-07T01:25:54;101656.28;;;15.85;77.70
79791;BME280;69278;52.220;5.172;2023-05-07T01:28:21;101669.78;;;15.91;77.48
79791;BME280;69278;52.220;5.172;2023-05-07T01:30:52;101650.13;;;15.84;77.63
79791;BME280;69278;52.220;5.172;2023-05-07T01:33:20;101639.13;;;15.79;77.82
79791;BME280;69278;52.220;5.172;2023-05-07T01:35:52;101604.22;;;15.57;77.84
79791;BME280;69278;52.220;5.172;2023-05-07T01:38:21;101657.50;;;15.90;77.72
79791;BME280;69278;52.220;5.172;2023-05-07T01:40:48;101663.94;;;15.88;77.78
79791;BME280;69278;52.220;5.172;2023-05-07T01:43:15;101656.97;;;15.87;77.62
79791;BME280;69278;52.220;5.172;2023-05-07T01:45:42;101651.25;;;15.82;77.65
79791;BME280;69278;52.220;5.172;2023-05-07T01:48:11;101645.13;;;15.81;77.98
79791;BME280;69278;52.220;5.172;2023-05-07T01:50:38;101654.91;;;15.81;77.85
79791;BME280;69278;52.220;5.172;2023-05-07T01:53:06;101658.09;;;15.84;77.98
79791;BME280;69278;52.220;5.172;2023-05-07T01:55:32;101658.25;;;15.83;77.85
79791;BME280;69278;52.220;5.172;2023-05-07T01:57:59;101674.03;;;15.84;78.00
79791;BME280;69278;52.220;5.172;2023-05-07T02:00:25;101667.53;;;15.79;77.96
79791;BME280;69278;52.220;5.172;2023-05-07T02:02:52;101673.34;;;15.82;77.92
79791;BME280;69278;52.220;5.172;2023-05-07T02:05:19;101675.16;;;15.82;77.81
79791;BME280;69278;52.220;5.172;2023-05-07T02:07:46;101661.88;;;15.82;77.97
79791;BME280;69278;52.220;5.172;2023-05-07T02:10:13;101661.38;;;15.78;77.83
79791;BME280;69278;52.220;5.172;2023-05-07T02:12:39;101654.63;;;15.84;77.88
79791;BME280;69278;52.220;5.172;2023-05-07T02:15:06;101656.28;;;15.85;77.77
79791;BME280;69278;52.220;5.172;2023-05-07T02:17:33;101657.13;;;15.85;77.79
79791;BME280;69278;52.220;5.172;2023-05-07T02:20:00;101653.63;;;15.85;77.66
79791;BME280;69278;52.220;5.172;2023-05-07T02:22:26;101647.63;;;15.83;77.87
79791;BME280;69278;52.220;5.172;2023-05-07T02:24:52;101652.09;;;15.82;77.92
79791;BME280;69278;52.220;5.172;2023-05-07T02:27:19;101638.31;;;15.79;77.78
79791;BME280;69278;52.220;5.172;2023-05-07T02:29:45;101636.22;;;15.73;77.74
79791;BME280;69278;52.220;5.172;2023-05-07T02:32:12;101647.41;;;15.76;78.12
79791;BME280;69278;52.220;5.172;2023-05-07T02:34:38;101654.66;;;15.74;78.11
79791;BME280;69278;52.220;5.172;2023-05-07T02:37:05;101654.25;;;15.79;78.16
79791;BME280;69278;52.220;5.172;2023-05-07T02:39:31;101655.06;;;15.79;77.85
79791;BME280;69278;52.220;5.172;2023-05-07T02:41:58;101638.50;;;15.68;77.76
79791;BME280;69278;52.220;5.172;2023-05-07T02:44:24;101656.34;;;15.75;77.86
79791;BME280;69278;52.220;5.172;2023-05-07T02:46:52;101647.25;;;15.78;77.93
79791;BME280;69278;52.220;5.172;2023-05-07T02:49:18;101658.84;;;15.77;77.91
79791;BME280;69278;52.220;5.172;2023-05-07T02:51:45;101655.88;;;15.80;77.99
79791;BME280;69278;52.220;5.172;2023-05-07T02:54:11;101647.25;;;15.78;77.85
79791;BME280;69278;52.220;5.172;2023-05-07T02:56:38;101656.56;;;15.82;77.97
79791;BME280;69278;52.220;5.172;2023-05-07T02:59:04;101654.25;;;15.79;78.04
79791;BME280;69278;52.220;5.172;2023-05-07T03:01:31;101660.53;;;15.78;78.02
79791;BME280;69278;52.220;5.172;2023-05-07T03:03:57;101652.00;;;15.74;78.17
79791;BME280;69278;52.220;5.172;2023-05-07T03:06:24;101663.84;;;15.80;78.30
79791;BME280;69278;52.220;5.172;2023-05-07T03:08:50;101625.16;;;15.60;78.33
79791;BME280;69278;52.220;5.172;2023-05-07T03:11:17;101655.06;;;15.79;78.23
79791;BME280;69278;52.220;5.172;2023-05-07T03:13:43;101659.09;;;15.83;78.07
79791;BME280;69278;52.220;5.172;2023-05-07T03:16:10;101650.44;;;15.81;77.98
79791;BME280;69278;52.220;5.172;2023-05-07T03:18:37;101645.44;;;15.78;77.81
79791;BME280;69278;52.220;5.172;2023-05-07T03:21:03;101652.94;;;15.83;78.21
79791;BME280;69278;52.220;5.172;2023-05-07T03:23:30;101653.91;;;15.82;77.90
79791;BME280;69278;52.220;5.172;2023-05-07T03:25:56;101649.59;;;15.81;78.08
79791;BME280;69278;52.220;5.172;2023-05-07T03:28:23;101650.56;;;15.80;78.10
79791;BME280;69278;52.220;5.172;2023-05-07T03:30:49;101611.88;;;15.60;77.92
79791;BME280;69278;52.220;5.172;2023-05-07T03:33:16;101628.56;;;15.70;78.15
79791;BME280;69278;52.220;5.172;2023-05-07T03:35:42;101631.53;;;15.67;78.30
79791;BME280;69278;52.220;5.172;2023-05-07T03:38:08;101654.06;;;15.80;78.35
79791;BME280;69278;52.220;5.172;2023-05-07T03:40:35;101632.91;;;15.71;78.03
79791;BME280;69278;52.220;5.172;2023-05-07T03:43:01;101646.09;;;15.80;78.30
79791;BME280;69278;52.220;5.172;2023-05-07T03:45:28;101636.78;;;15.76;78.13
79791;BME280;69278;52.220;5.172;2023-05-07T03:47:54;101646.56;;;15.76;78.39
79791;BME280;69278;52.220;5.172;2023-05-07T03:50:21;101640.25;;;15.77;78.14
79791;BME280;69278;52.220;5.172;2023-05-07T03:52:47;101627.03;;;15.67;78.25
79791;BME280;69278;52.220;5.172;2023-05-07T03:55:14;101643.06;;;15.75;78.27
79791;BME280;69278;52.220;5.172;2023-05-07T03:57:40;101642.69;;;15.70;78.11
79791;BME280;69278;52.220;5.172;2023-05-07T04:00:07;101663.34;;;15.76;78.28
79791;BME280;69278;52.220;5.172;2023-05-07T04:02:35;101656.63;;;15.72;78.31
79791;BME280;69278;52.220;5.172;2023-05-07T04:05:02;101639.91;;;15.62;78.54
79791;BME280;69278;52.220;5.172;2023-05-07T04:07:28;101658.03;;;15.76;78.34
79791;BME280;69278;52.220;5.172;2023-05-07T04:09:54;101662.94;;;15.71;78.49
79791;BME280;69278;52.220;5.172;2023-05-07T04:12:21;101641.38;;;15.57;78.61
79791;BME280;69278;52.220;5.172;2023-05-07T04:14:47;101644.09;;;15.65;78.44
79791;BME280;69278;52.220;5.172;2023-05-07T04:17:14;101661.81;;;15.74;78.41
79791;BME280;69278;52.220;5.172;2023-05-07T04:19:40;101649.75;;;15.62;78.44
79791;BME280;69278;52.220;5.172;2023-05-07T04:22:11;101641.91;;;15.60;78.48
79791;BME280;69278;52.220;5.172;2023-05-07T04:24:38;101664.47;;;15.74;78.77
79791;BME280;69278;52.220;5.172;2023-05-07T04:27:04;101649.41;;;15.65;78.47
79791;BME280;69278;52.220;5.172;2023-05-07T04:29:32;101660.13;;;15.73;78.38
79791;BME280;69278;52.220;5.172;2023-05-07T04:31:59;101668.50;;;15.78;78.49
79791;BME280;69278;52.220;5.172;2023-05-07T04:34:25;101649.41;;;15.65;78.44
79791;BME280;69278;52.220;5.172;2023-05-07T04:36:52;101656.13;;;15.69;78.15
79791;BME280;69278;52.220;5.172;2023-05-07T04:39:18;101666.56;;;15.70;78.39
79791;BME280;69278;52.220;5.172;2023-05-07T04:41:44;101658.91;;;15.67;78.35
79791;BME280;69278;52.220;5.172;2023-05-07T04:44:11;101662.09;;;15.71;78.39
79791;BME280;69278;52.220;5.172;2023-05-07T04:46:38;101670.31;;;15.77;78.17
79791;BME280;69278;52.220;5.172;2023-05-07T04:49:04;101675.63;;;15.77;78.16
79791;BME280;69278;52.220;5.172;2023-05-07T04:51:31;101680.09;;;15.77;78.16
79791;BME280;69278;52.220;5.172;2023-05-07T04:53:58;101656.41;;;15.66;78.22
79791;BME280;69278;52.220;5.172;2023-05-07T04:56:27;101675.09;;;15.74;78.43
79791;BME280;69278;52.220;5.172;2023-05-07T04:58:54;101637.94;;;15.47;78.24
79791;BME280;69278;52.220;5.172;2023-05-07T05:01:20;101675.69;;;15.68;78.48
79791;BME280;69278;52.220;5.172;2023-05-07T05:03:47;101664.13;;;15.59;78.38
79791;BME280;69278;52.220;5.172;2023-05-07T05:06:13;101678.63;;;15.65;78.26
79791;BME280;69278;52.220;5.172;2023-05-07T05:08:40;101676.13;;;15.63;78.47
79791;BME280;69278;52.220;5.172;2023-05-07T05:11:06;101678.94;;;15.62;78.52
79791;BME280;69278;52.220;5.172;2023-05-07T05:13:32;101679.06;;;15.60;78.43
79791;BME280;69278;52.220;5.172;2023-05-07T05:15:59;101690.25;;;15.64;78.39
79791;BME280;69278;52.220;5.172;2023-05-07T05:18:26;101684.53;;;15.59;78.58
79791;BME280;69278;52.220;5.172;2023-05-07T05:20:52;101689.69;;;15.60;78.42
79791;BME280;69278;52.220;5.172;2023-05-07T05:23:19;101692.50;;;15.59;78.73
79791;BME280;69278;52.220;5.172;2023-05-07T05:25:46;101690.81;;;15.58;78.63
79791;BME280;69278;52.220;5.172;2023-05-07T05:28:12;101674.50;;;15.53;78.42
79791;BME280;69278;52.220;5.172;2023-05-07T05:30:39;101696.69;;;15.61;78.40
79791;BME280;69278;52.220;5.172;2023-05-07T05:33:06;101695.00;;;15.60;78.45
79791;BME280;69278;52.220;5.172;2023-05-07T05:35:32;101694.31;;;15.58;78.65
79791;BME280;69278;52.220;5.172;2023-05-07T05:37:58;101698.91;;;15.66;78.66
79791;BME280;69278;52.220;5.172;2023-05-07T05:40:25;101699.19;;;15.63;78.40
79791;BME280;69278;52.220;5.172;2023-05-07T05:42:51;101709.91;;;15.71;78.13
79791;BME280;69278;52.220;5.172;2023-05-07T05:45:18;101696.53;;;15.63;78.16
79791;BME280;69278;52.220;5.172;2023-05-07T05:47:44;101712.41;;;15.72;78.27
79791;BME280;69278;52.220;5.172;2023-05-07T05:50:11;101710.31;;;15.76;78.21
79791;BME280;69278;52.220;5.172;2023-05-07T05:52:38;101696.63;;;15.71;78.18
79791;BME280;69278;52.220;5.172;2023-05-07T05:55:05;101690.94;;;15.66;78.05
79791;BME280;69278;52.220;5.172;2023-05-07T05:57:31;101694.25;;;15.68;78.30
79791;BME280;69278;52.220;5.172;2023-05-07T05:59:58;101719.19;;;15.84;78.04
79791;BME280;69278;52.220;5.172;2023-05-07T06:02:24;101715.28;;;15.88;78.16
79791;BME280;69278;52.220;5.172;2023-05-07T06:04:51;101710.09;;;15.87;78.05
79791;BME280;69278;52.220;5.172;2023-05-07T06:07:17;101724.31;;;15.96;78.34
79791;BME280;69278;52.220;5.172;2023-05-07T06:09:44;101721.38;;;15.89;77.98
79791;BME280;69278;52.220;5.172;2023-05-07T06:12:11;101747.09;;;15.98;78.38
79791;BME280;69278;52.220;5.172;2023-05-07T06:14:37;101740.78;;;15.99;78.24
79791;BME280;69278;52.220;5.172;2023-05-07T06:17:04;101726.41;;;15.92;78.38
79791;BME280;69278;52.220;5.172;2023-05-07T06:19:31;101728.63;;;15.97;78.41
79791;BME280;69278;52.220;5.172;2023-05-07T06:21:58;101736.13;;;16.01;78.48
79791;BME280;69278;52.220;5.172;2023-05-07T06:24:24;101739.78;;;16.00;78.49
79791;BME280;69278;52.220;5.172;2023-05-07T06:26:51;101747.91;;;15.99;78.43
79791;BME280;69278;52.220;5.172;2023-05-07T06:29:18;101753.06;;;16.00;78.58
79791;BME280;69278;52.220;5.172;2023-05-07T06:31:44;101745.56;;;15.96;78.71
79791;BME280;69278;52.220;5.172;2023-05-07T06:34:11;101746.75;;;16.01;78.98
79791;BME280;69278;52.220;5.172;2023-05-07T06:36:40;101735.63;;;15.98;79.06
79791;BME280;69278;52.220;5.172;2023-05-07T06:39:07;101732.56;;;15.92;78.89
79791;BME280;69278;52.220;5.172;2023-05-07T06:41:33;101744.66;;;16.05;78.95
79791;BME280;69278;52.220;5.172;2023-05-07T06:44:02;101753.69;;;16.12;78.84
79791;BME280;69278;52.220;5.172;2023-05-07T06:46:29;101736.06;;;16.11;78.89
79791;BME280;69278;52.220;5.172;2023-05-07T06:48:56;101746.66;;;16.20;79.09
79791;BME280;69278;52.220;5.172;2023-05-07T06:51:23;101747.19;;;16.24;78.79
79791;BME280;69278;52.220;5.172;2023-05-07T06:53:49;101733.50;;;16.19;78.75
79791;BME280;69278;52.220;5.172;2023-05-07T06:56:15;101741.03;;;16.23;78.58
79791;BME280;69278;52.220;5.172;2023-05-07T06:58:42;101749.38;;;16.28;78.78
79791;BME280;69278;52.220;5.172;2023-05-07T07:01:08;101754.13;;;16.34;78.76
79791;BME280;69278;52.220;5.172;2023-05-07T07:03:35;101742.47;;;16.35;78.87
79791;BME280;69278;52.220;5.172;2023-05-07T07:06:01;101754.56;;;16.47;78.72
79791;BME280;69278;52.220;5.172;2023-05-07T07:08:28;101729.72;;;16.39;78.97
79791;BME280;69278;52.220;5.172;2023-05-07T07:10:55;101750.03;;;16.57;78.71
79791;BME280;69278;52.220;5.172;2023-05-07T07:13:21;101756.09;;;16.68;78.51
79791;BME280;69278;52.220;5.172;2023-05-07T07:15:48;101747.28;;;16.67;78.56
79791;BME280;69278;52.220;5.172;2023-05-07T07:18:14;101758.00;;;16.75;78.20
79791;BME280;69278;52.220;5.172;2023-05-07T07:20:41;101745.84;;;16.73;78.22
79791;BME280;69278;52.220;5.172;2023-05-07T07:23:07;101755.53;;;16.82;78.01
79791;BME280;69278;52.220;5.172;2023-05-07T07:25:34;101724.56;;;16.73;77.95
79791;BME280;69278;52.220;5.172;2023-05-07T07:28:01;101754.97;;;16.96;78.08
79791;BME280;69278;52.220;5.172;2023-05-07T07:30:27;101754.69;;;16.99;77.69
79791;BME280;69278;52.220;5.172;2023-05-07T07:32:54;101761.00;;;16.98;77.77
79791;BME280;69278;52.220;5.172;2023-05-07T07:35:21;101764.00;;;17.03;77.48
79791;BME280;69278;52.220;5.172;2023-05-07T07:37:48;101729.63;;;16.84;77.35
79791;BME280;69278;52.220;5.172;2023-05-07T07:40:16;101751.25;;;17.06;77.58
79791;BME280;69278;52.220;5.172;2023-05-07T07:42:43;101754.78;;;17.15;77.65
79791;BME280;69278;52.220;5.172;2023-05-07T07:45:09;101766.84;;;17.27;77.41
79791;BME280;69278;52.220;5.172;2023-05-07T07:47:36;101765.00;;;17.27;77.10
79791;BME280;69278;52.220;5.172;2023-05-07T07:50:03;101753.03;;;17.23;77.14
79791;BME280;69278;52.220;5.172;2023-05-07T07:52:29;101765.25;;;17.34;76.87
79791;BME280;69278;52.220;5.172;2023-05-07T07:54:56;101764.91;;;17.37;76.84
79791;BME280;69278;52.220;5.172;2023-05-07T07:57:22;101745.59;;;17.35;76.82
79791;BME280;69278;52.220;5.172;2023-05-07T07:59:49;101754.78;;;17.41;76.88
79791;BME280;69278;52.220;5.172;2023-05-07T08:02:16;101742.97;;;17.43;77.25
79791;BME280;69278;52.220;5.172;2023-05-07T08:04:43;101752.72;;;17.52;76.91
79791;BME280;69278;52.220;5.172;2023-05-07T08:07:10;101753.56;;;17.53;76.75
79791;BME280;69278;52.220;5.172;2023-05-07T08:09:37;101732.66;;;17.40;76.46
79791;BME280;69278;52.220;5.172;2023-05-07T08:12:05;101750.19;;;17.51;76.29
79791;BME280;69278;52.220;5.172;2023-05-07T08:14:32;101743.00;;;17.51;76.42
79791;BME280;69278;52.220;5.172;2023-05-07T08:16:59;101741.56;;;17.57;76.33
79791;BME280;69278;52.220;5.172;2023-05-07T08:19:25;101739.94;;;17.56;76.21
79791;BME280;69278;52.220;5.172;2023-05-07T08:21:52;101747.09;;;17.63;76.32
79791;BME280;69278;52.220;5.172;2023-05-07T08:24:18;101748.16;;;17.70;76.24
79791;BME280;69278;52.220;5.172;2023-05-07T08:26:45;101755.59;;;17.67;75.73
79791;BME280;69278;52.220;5.172;2023-05-07T08:29:13;101742.25;;;17.59;75.88
79791;BME280;69278;52.220;5.172;2023-05-07T08:31:39;101754.09;;;17.64;75.37
79791;BME280;69278;52.220;5.172;2023-05-07T08:34:06;101751.78;;;17.69;75.61
79791;BME280;69278;52.220;5.172;2023-05-07T08:36:35;101762.31;;;17.79;75.15
79791;BME280;69278;52.220;5.172;2023-05-07T08:39:01;101756.81;;;17.80;74.93
79791;BME280;69278;52.220;5.172;2023-05-07T08:41:29;101771.22;;;17.96;75.08
79791;BME280;69278;52.220;5.172;2023-05-07T08:43:58;101751.69;;;17.87;75.46
79791;BME280;69278;52.220;5.172;2023-05-07T08:46:25;101757.03;;;17.95;75.03
79791;BME280;69278;52.220;5.172;2023-05-07T08:48:52;101766.75;;;18.04;74.85
79791;BME280;69278;52.220;5.172;2023-05-07T08:51:20;101710.00;;;17.78;74.95
79791;BME280;69278;52.220;5.172;2023-05-07T08:53:48;101762.63;;;18.26;74.70
79791;BME280;69278;52.220;5.172;2023-05-07T08:56:16;101778.66;;;18.42;74.26
79791;BME280;69278;52.220;5.172;2023-05-07T08:58:44;101779.69;;;18.49;73.90
79791;BME280;69278;52.220;5.172;2023-05-07T09:01:15;101769.03;;;18.57;73.28
79791;BME280;69278;52.220;5.172;2023-05-07T09:03:45;101744.66;;;18.44;73.20
79791;BME280;69278;52.220;5.172;2023-05-07T09:06:12;101768.56;;;18.70;72.76
79791;BME280;69278;52.220;5.172;2023-05-07T09:08:39;101764.72;;;18.72;72.59
79791;BME280;69278;52.220;5.172;2023-05-07T09:11:05;101765.38;;;18.82;71.72
79791;BME280;69278;52.220;5.172;2023-05-07T09:13:32;101771.22;;;18.94;71.16
79791;BME280;69278;52.220;5.172;2023-05-07T09:16:04;101780.03;;;19.10;71.47
79791;BME280;69278;52.220;5.172;2023-05-07T09:18:43;101751.53;;;19.03;70.25
79791;BME280;69278;52.220;5.172;2023-05-07T09:21:10;101768.16;;;19.29;70.29
79791;BME280;69278;52.220;5.172;2023-05-07T09:23:37;101766.66;;;19.35;69.59
79791;BME280;69278;52.220;5.172;2023-05-07T09:26:04;101778.00;;;19.45;69.16
79791;BME280;69278;52.220;5.172;2023-05-07T09:28:35;101774.31;;;19.46;69.06
79791;BME280;69278;52.220;5.172;2023-05-07T09:31:01;101759.97;;;19.47;69.20
79791;BME280;69278;52.220;5.172;2023-05-07T09:33:27;101777.94;;;19.61;68.75
79791;BME280;69278;52.220;5.172;2023-05-07T09:35:54;101767.75;;;19.64;68.64
79791;BME280;69278;52.220;5.172;2023-05-07T09:38:21;101777.88;;;19.77;68.85
79791;BME280;69278;52.220;5.172;2023-05-07T09:40:47;101768.88;;;19.78;68.71
79791;BME280;69278;52.220;5.172;2023-05-07T09:43:14;101774.84;;;19.88;68.42
79791;BME280;69278;52.220;5.172;2023-05-07T09:45:40;101772.50;;;19.85;67.77
79791;BME280;69278;52.220;5.172;2023-05-07T09:48:07;101759.81;;;19.79;67.37
79791;BME280;69278;52.220;5.172;2023-05-07T09:50:47;101775.16;;;19.93;66.35
79791;BME280;69278;52.220;5.172;2023-05-07T09:53:15;101778.81;;;20.00;67.25
79791;BME280;69278;52.220;5.172;2023-05-07T09:55:43;101755.91;;;19.98;66.55
79791;BME280;69278;52.220;5.172;2023-05-07T09:58:12;101766.84;;;20.11;65.13
79791;BME280;69278;52.220;5.172;2023-05-07T10:00:41;101756.88;;;20.05;65.83
79791;BME280;69278;52.220;5.172;2023-05-07T10:03:09;101761.69;;;20.09;65.29
79791;BME280;69278;52.220;5.172;2023-05-07T10:05:36;101762.31;;;20.19;64.86
79791;BME280;69278;52.220;5.172;2023-05-07T10:08:02;101760.63;;;20.26;64.96
79791;BME280;69278;52.220;5.172;2023-05-07T10:10:32;101727.22;;;20.22;65.13
79791;BME280;69278;52.220;5.172;2023-05-07T10:12:59;101762.47;;;20.48;64.00
79791;BME280;69278;52.220;5.172;2023-05-07T10:15:26;101769.63;;;20.56;64.03
79791;BME280;69278;52.220;5.172;2023-05-07T10:17:53;101777.41;;;20.66;64.20
79791;BME280;69278;52.220;5.172;2023-05-07T10:20:20;101774.50;;;20.75;64.21
79791;BME280;69278;52.220;5.172;2023-05-07T10:22:48;101777.06;;;20.83;63.74
79791;BME280;69278;52.220;5.172;2023-05-07T10:25:18;101777.03;;;20.91;63.59
79791;BME280;69278;52.220;5.172;2023-05-07T10:27:48;101776.47;;;20.96;63.17
79791;BME280;69278;52.220;5.172;2023-05-07T10:30:39;101778.44;;;21.02;62.99
79791;BME280;69278;52.220;5.172;2023-05-07T10:33:10;101778.09;;;21.05;62.27
79791;BME280;69278;52.220;5.172;2023-05-07T10:35:40;101750.34;;;20.98;62.48
79791;BME280;69278;52.220;5.172;2023-05-07T10:38:08;101787.63;;;21.22;63.07
79791;BME280;69278;52.220;5.172;2023-05-07T10:40:34;101781.56;;;21.28;62.26
79791;BME280;69278;52.220;5.172;2023-05-07T10:43:03;101790.03;;;21.32;62.49
79791;BME280;69278;52.220;5.172;2023-05-07T10:45:35;101782.84;;;21.32;61.57
79791;BME280;69278;52.220;5.172;2023-05-07T10:48:15;101786.56;;;21.31;61.58
79791;BME280;69278;52.220;5.172;2023-05-07T10:51:21;101796.63;;;21.44;61.32
79791;BME280;69278;52.220;5.172;2023-05-07T10:53:48;101782.50;;;21.50;61.79
79791;BME280;69278;52.220;5.172;2023-05-07T10:58:44;101762.16;;;21.55;60.87
79791;BME280;69278;52.220;5.172;2023-05-07T11:01:11;101777.50;;;21.76;61.36
79791;BME280;69278;52.220;5.172;2023-05-07T11:04:12;101775.38;;;21.86;60.57
79791;BME280;69278;52.220;5.172;2023-05-07T11:06:39;101781.19;;;21.90;60.63
79791;BME280;69278;52.220;5.172;2023-05-07T11:09:06;101789.91;;;21.92;60.03
79791;BME280;69278;52.220;5.172;2023-05-07T11:11:46;101776.56;;;21.83;58.80
79791;BME280;69278;52.220;5.172;2023-05-07T11:14:15;101783.59;;;21.99;58.83
79791;BME280;69278;52.220;5.172;2023-05-07T11:17:02;101791.34;;;22.09;58.63
79791;BME280;69278;52.220;5.172;2023-05-07T11:19:48;101789.13;;;22.12;57.71
79791;BME280;69278;52.220;5.172;2023-05-07T11:25:04;101781.13;;;22.19;57.08
79791;BME280;69278;52.220;5.172;2023-05-07T11:27:32;101780.38;;;22.25;57.20
79791;BME280;69278;52.220;5.172;2023-05-07T11:29:59;101786.19;;;22.28;56.64
79791;BME280;69278;52.220;5.172;2023-05-07T11:32:27;101778.88;;;22.37;56.34
79791;BME280;69278;52.220;5.172;2023-05-07T11:34:57;101783.03;;;22.39;55.30
79791;BME280;69278;52.220;5.172;2023-05-07T11:37:25;101782.50;;;22.51;55.29
79791;BME280;69278;52.220;5.172;2023-05-07T11:40:05;101774.13;;;22.60;53.49
79791;BME280;69278;52.220;5.172;2023-05-07T11:42:35;101793.09;;;22.73;54.39
79791;BME280;69278;52.220;5.172;2023-05-07T11:45:04;101765.63;;;22.71;53.86
79791;BME280;69278;52.220;5.172;2023-05-07T11:47:32;101783.16;;;22.95;53.72
79791;BME280;69278;52.220;5.172;2023-05-07T11:50:06;101785.72;;;23.03;52.99
79791;BME280;69278;52.220;5.172;2023-05-07T11:52:34;101779.59;;;23.16;52.76
79791;BME280;69278;52.220;5.172;2023-05-07T11:55:02;101775.38;;;23.28;51.91
79791;BME280;69278;52.220;5.172;2023-05-07T11:57:29;101775.84;;;23.38;49.97
79791;BME280;69278;52.220;5.172;2023-05-07T11:59:57;101787.66;;;23.37;49.18
79791;BME280;69278;52.220;5.172;2023-05-07T12:02:25;101781.44;;;23.36;49.69
79791;BME280;69278;52.220;5.172;2023-05-07T12:04:53;101782.84;;;23.32;51.01
79791;BME280;69278;52.220;5.172;2023-05-07T12:07:20;101783.78;;;23.46;50.19
79791;BME280;69278;52.220;5.172;2023-05-07T12:09:47;101774.84;;;23.39;50.46
79791;BME280;69278;52.220;5.172;2023-05-07T12:12:14;101748.06;;;23.31;49.54
79791;BME280;69278;52.220;5.172;2023-05-07T12:14:42;101773.47;;;23.49;50.08
79791;BME280;69278;52.220;5.172;2023-05-07T12:17:10;101770.53;;;23.85;49.70
79791;BME280;69278;52.220;5.172;2023-05-07T12:19:39;101787.06;;;24.23;48.32
79791;BME280;69278;52.220;5.172;2023-05-07T12:22:08;101775.28;;;24.37;48.79
79791;BME280;69278;52.220;5.172;2023-05-07T12:24:48;101774.50;;;24.76;47.25
79791;BME280;69278;52.220;5.172;2023-05-07T12:27:16;101791.13;;;25.45;46.84
79791;BME280;69278;52.220;5.172;2023-05-07T12:29:46;101786.09;;;25.61;45.91
79791;BME280;69278;52.220;5.172;2023-05-07T12:32:14;101790.69;;;25.35;45.95
79791;BME280;69278;52.220;5.172;2023-05-07T12:34:42;101771.00;;;24.95;46.33
79791;BME280;69278;52.220;5.172;2023-05-07T12:37:11;101784.03;;;24.72;46.01
79791;BME280;69278;52.220;5.172;2023-05-07T12:39:44;101777.78;;;24.38;45.14
79791;BME280;69278;52.220;5.172;2023-05-07T12:42:19;101739.13;;;24.05;48.86
79791;BME280;69278;52.220;5.172;2023-05-07T12:44:46;101790.34;;;24.12;48.47
79791;BME280;69278;52.220;5.172;2023-05-07T12:47:14;101754.78;;;23.82;48.97
79791;BME280;69278;52.220;5.172;2023-05-07T12:49:43;101785.84;;;23.85;48.83
79791;BME280;69278;52.220;5.172;2023-05-07T12:52:11;101781.03;;;23.73;49.39
79791;BME280;69278;52.220;5.172;2023-05-07T12:54:38;101767.03;;;23.50;49.62
79791;BME280;69278;52.220;5.172;2023-05-07T12:57:07;101751.59;;;23.31;49.68